1924 NOT_NAMED (1924303N16128)


IBTrACS version v04r00. Visit IBTrACS website for data access.
Please direct all questions to the IBTrACS Q and A forum

Storm track - Intensity - Wind Radii - Intensity Data - Source Data - All data

Summary Information

Storm ID 1924303N16128
Start Oct 28 22Z
End Oct 31 22Z
ATCF IDs
Track status Best track data.

Storm track plot

Map of storm track

Intensity plots

No Intensity information for this storm


Radial wind information

No radial wind information for this storm


Position and Intensity Table

BASIN ISO_TIME_________ NATURE LAT LON
degrees north degrees east
WP 1924-10-28 22:00:00 NR 15.80 127.90
WP 1924-10-29 00:00:00 NR 15.80 127.69
WP 03:00:00 NR 15.79 127.37
WP 06:00:00 NR 15.79 127.07
WP 09:00:00 NR 15.80 126.79
WP 10:00:00 NR 15.80 126.70
WP 12:00:00 NR 15.81 126.53
WP 15:00:00 NR 15.84 126.29
WP 18:00:00 NR 15.89 126.05
WP 21:00:00 NR 15.97 125.79
WP 22:00:00 NR 16.00 125.70
WP 1924-10-30 00:00:00 NR 16.06 125.49
WP 03:00:00 NR 16.17 125.16
WP 06:00:00 NR 16.32 124.82
WP 09:00:00 NR 16.52 124.50
WP 10:00:00 NR 16.60 124.40
WP 12:00:00 NR 16.78 124.19
WP 15:00:00 NR 17.11 123.90
WP 18:00:00 NR 17.47 123.67
WP 21:00:00 NR 17.87 123.52
WP 22:00:00 NR 18.00 123.50
WP 1924-10-31 00:00:00 NR 18.25 123.48
WP 03:00:00 NR 18.64 123.55
WP 06:00:00 NR 19.05 123.70
WP 09:00:00 NR 19.46 123.92
WP 10:00:00 NR 19.60 124.00
WP 12:00:00 NR 19.88 124.18
WP 15:00:00 NR 20.30 124.46
WP 18:00:00 NR 20.73 124.77
WP 21:00:00 NR 21.16 125.09
WP 22:00:00 NR 21.30 125.20

Source Information

Agency Information
USA
TOKYO
CMA
HKO
NEWDELHI
REUNION
BOM
NADI
WELLINGTON
DS824
TD9636 cons_worldwide_trop_cyclone_18710101-19891231-003:Line=7271
TD9635
NEUMANN
MLC

All available IBTrACS Data

SEASON BASIN SUBBASIN ISO_TIME_________ NATURE LAT LON DIST2LAND LANDFALL IFLAG USA SSHS TD9636 LAT TD9636 LON TD9636 STAGE STORM SPEED STORM DIR
Year degrees north degrees east km km 1 degrees north degrees east kts degrees
1924 WP MM 1924-10-28 22:00:00 NR 15.80 127.90 432 413 __________O___ -1 15.80 127.90 2 6 269
1924 WP MM 1924-10-29 00:00:00 NR 15.80 127.69 413 386 __________P___ -1 15.80 127.69 2 6 269
1924 WP MM 03:00:00 NR 15.79 127.37 386 359 __________P___ -1 15.79 127.37 2 6 269
1924 WP MM 06:00:00 NR 15.79 127.07 359 334 __________P___ -1 15.79 127.07 2 6 270
1924 WP MM 09:00:00 NR 15.80 126.79 334 326 __________P___ -1 15.80 126.79 2 5 272
1924 WP MM 10:00:00 NR 15.80 126.70 326 310 __________O___ -1 15.80 126.70 2 5 273
1924 WP MM 12:00:00 NR 15.81 126.53 310 294 __________P___ -1 15.81 126.53 2 5 276
1924 WP MM 15:00:00 NR 15.84 126.29 294 280 __________P___ -1 15.84 126.29 2 5 280
1924 WP MM 18:00:00 NR 15.89 126.05 280 266 __________P___ -1 15.89 126.05 2 5 285
1924 WP MM 21:00:00 NR 15.97 125.79 275 269 __________P___ -1 15.97 125.79 2 5 288
1924 WP MM 22:00:00 NR 16.00 125.70 269 258 __________O___ -1 16.00 125.70 2 6 287
1924 WP MM 1924-10-30 00:00:00 NR 16.06 125.49 268 254 __________P___ -1 16.06 125.49 2 7 288
1924 WP MM 03:00:00 NR 16.17 125.16 264 254 __________P___ -1 16.17 125.16 2 7 292
1924 WP MM 06:00:00 NR 16.32 124.82 254 217 __________P___ -1 16.32 124.82 2 7 299
1924 WP MM 09:00:00 NR 16.52 124.50 217 205 __________P___ -1 16.52 124.50 2 7 305
1924 WP MM 10:00:00 NR 16.60 124.40 205 181 __________O___ -1 16.60 124.40 2 8 312
1924 WP MM 12:00:00 NR 16.78 124.19 181 148 __________P___ -1 16.78 124.19 2 8 317
1924 WP MM 15:00:00 NR 17.11 123.90 149 131 __________P___ -1 17.11 123.90 2 9 324
1924 WP MM 18:00:00 NR 17.47 123.67 139 129 __________P___ -1 17.47 123.67 2 8 335
1924 WP MM 21:00:00 NR 17.87 123.52 134 131 __________P___ -1 17.87 123.52 2 8 343
1924 WP MM 22:00:00 NR 18.00 123.50 131 126 __________O___ -1 18.00 123.50 2 8 354
1924 WP MM 1924-10-31 00:00:00 NR 18.25 123.48 126 126 __________P___ -1 18.25 123.48 2 8 4
1924 WP MM 03:00:00 NR 18.64 123.55 138 141 __________P___ -1 18.64 123.55 2 8 15
1924 WP MM 06:00:00 NR 19.05 123.70 162 166 __________P___ -1 19.05 123.70 2 9 23
1924 WP MM 09:00:00 NR 19.46 123.92 208 208 __________P___ -1 19.46 123.92 2 9 27
1924 WP MM 10:00:00 NR 19.60 124.00 223 223 __________O___ -1 19.60 124.00 2 10 30
1924 WP MM 12:00:00 NR 19.88 124.18 260 260 __________P___ -1 19.88 124.18 2 10 32
1924 WP MM 15:00:00 NR 20.30 124.46 313 313 __________P___ -1 20.30 124.46 2 10 33
1924 WP MM 18:00:00 NR 20.73 124.77 367 375 __________P___ -1 20.73 124.77 2 10 35
1924 WP MM 21:00:00 NR 21.16 125.09 428 428 __________P___ -1 21.16 125.09 2 10 35
1924 WP MM 22:00:00 NR 21.30 125.20 439 __________O___ -1 21.30 125.20 7 11 36